createdAt,value
2023-02-15T00:00:11.824Z,58.77
2023-02-15T00:02:40.766Z,58.73
2023-02-15T00:05:09.313Z,59.34
2023-02-15T00:07:37.212Z,59.03
2023-02-15T00:10:05.873Z,58.20
2023-02-15T00:12:33.946Z,58.25
2023-02-15T00:15:01.800Z,58.53
2023-02-15T00:17:30.456Z,59.49
2023-02-15T00:19:58.279Z,59.36
2023-02-15T00:22:27.133Z,60.23
2023-02-15T00:24:54.975Z,60.43
2023-02-15T00:27:22.917Z,61.14
2023-02-15T00:29:50.874Z,61.25
2023-02-15T00:32:18.716Z,61.02
2023-02-15T00:34:46.489Z,61.06
2023-02-15T00:37:14.374Z,60.20
2023-02-15T00:39:42.306Z,59.59
2023-02-15T00:42:10.266Z,59.54
2023-02-15T00:44:38.215Z,59.43
2023-02-15T00:47:06.177Z,59.50
2023-02-15T00:49:34.025Z,58.96
2023-02-15T00:52:02.913Z,58.73
2023-02-15T00:54:30.885Z,59.55
2023-02-15T00:56:58.886Z,58.88
2023-02-15T00:59:26.906Z,59.19
2023-02-15T01:01:54.860Z,58.40
2023-02-15T01:04:22.812Z,59.02
2023-02-15T01:06:51.128Z,59.32
2023-02-15T01:09:19.099Z,59.95
2023-02-15T01:11:48.200Z,59.47
2023-02-15T01:14:16.210Z,59.27
2023-02-15T01:16:44.048Z,59.26
2023-02-15T01:19:12.031Z,59.88
2023-02-15T01:21:42.042Z,60.41
2023-02-15T01:24:15.427Z,60.82
2023-02-15T01:26:43.422Z,60.53
2023-02-15T01:29:11.353Z,60.50
2023-02-15T01:31:40.545Z,60.34
2023-02-15T01:34:08.630Z,60.71
2023-02-15T01:36:37.073Z,60.92
2023-02-15T01:39:05.171Z,61.30
2023-02-15T01:41:34.020Z,60.82
2023-02-15T01:44:04.064Z,60.53
2023-02-15T01:46:44.187Z,60.41
2023-02-15T01:49:17.903Z,60.17
2023-02-15T01:51:48.311Z,59.98
2023-02-15T01:54:27.406Z,59.53
2023-02-15T01:57:00.929Z,59.68
2023-02-15T01:59:29.307Z,59.39
2023-02-15T02:02:00.827Z,59.14
2023-02-15T02:04:52.101Z,58.95
2023-02-15T02:07:23.703Z,59.06
2023-02-15T02:09:51.815Z,59.56
2023-02-15T02:12:22.607Z,59.21
2023-02-15T02:14:52.706Z,58.59
2023-02-15T02:17:28.126Z,59.15
2023-02-15T02:20:29.910Z,59.90
2023-02-15T02:23:33.364Z,59.53
2023-02-15T02:26:10.248Z,59.39
2023-02-15T02:28:43.985Z,58.92
2023-02-15T02:31:30.617Z,58.32
2023-02-15T02:34:18.391Z,58.55
2023-02-15T02:37:24.567Z,58.98
2023-02-15T02:40:01.877Z,58.30
2023-02-15T02:42:51.683Z,58.72
2023-02-15T02:45:44.815Z,59.01
2023-02-15T02:48:21.046Z,59.38
2023-02-15T02:50:50.720Z,59.24
2023-02-15T02:53:18.568Z,59.67
2023-02-15T02:56:00.134Z,60.46
2023-02-15T02:58:36.378Z,59.58
2023-02-15T03:01:13.119Z,59.40
2023-02-15T03:03:48.006Z,59.41
2023-02-15T03:06:30.351Z,59.52
2023-02-15T03:09:25.149Z,59.64
2023-02-15T03:11:53.068Z,59.82
2023-02-15T03:14:22.817Z,59.80
2023-02-15T03:16:52.997Z,59.77
2023-02-15T03:19:28.760Z,59.77
2023-02-15T03:22:10.456Z,59.97
2023-02-15T03:24:54.592Z,59.83
2023-02-15T03:27:28.891Z,59.64
2023-02-15T03:30:00.022Z,60.14
2023-02-15T03:32:30.865Z,60.48
2023-02-15T03:34:58.872Z,61.25
2023-02-15T03:37:40.332Z,61.46
2023-02-15T03:40:45.852Z,61.44
2023-02-15T03:43:35.800Z,61.53
2023-02-15T03:46:19.233Z,61.60
2023-02-15T03:49:07.359Z,61.93
2023-02-15T03:51:40.602Z,61.65
2023-02-15T03:54:38.902Z,60.96
2023-02-15T03:57:58.372Z,61.57
2023-02-15T04:00:44.929Z,61.68
2023-02-15T04:03:48.090Z,61.53
2023-02-15T04:06:16.035Z,61.70
2023-02-15T04:09:02.341Z,62.25
2023-02-15T04:11:30.221Z,62.22
2023-02-15T04:13:58.158Z,61.94
2023-02-15T04:16:26.978Z,62.21
2023-02-15T04:19:13.959Z,61.90
2023-02-15T04:22:00.486Z,62.11
2023-02-15T04:24:46.828Z,62.85
2023-02-15T04:27:15.721Z,62.15
2023-02-15T04:29:44.260Z,62.23
2023-02-15T04:32:12.234Z,62.20
2023-02-15T04:34:40.205Z,61.70
2023-02-15T04:37:08.097Z,61.73
2023-02-15T04:39:36.029Z,62.25
2023-02-15T04:42:03.985Z,62.18
2023-02-15T04:44:31.783Z,61.76
2023-02-15T04:46:59.664Z,62.10
2023-02-15T04:49:27.533Z,61.99
2023-02-15T04:51:55.419Z,60.31
2023-02-15T04:54:23.339Z,61.02
2023-02-15T04:56:51.241Z,61.02
2023-02-15T04:59:19.074Z,62.25
2023-02-15T05:01:46.877Z,62.36
2023-02-15T05:04:14.905Z,61.50
2023-02-15T05:06:42.777Z,61.68
2023-02-15T05:09:12.625Z,62.68
2023-02-15T05:11:40.504Z,63.11
2023-02-15T05:14:08.866Z,63.13
2023-02-15T05:16:36.726Z,61.75
2023-02-15T05:19:05.058Z,62.52
2023-02-15T05:21:34.062Z,62.91
2023-02-15T05:24:01.904Z,62.32
2023-02-15T05:26:48.247Z,62.58
2023-02-15T05:29:16.128Z,63.63
2023-02-15T05:31:48.726Z,61.36
2023-02-15T05:34:16.620Z,60.56
2023-02-15T05:36:44.490Z,61.18
2023-02-15T05:39:12.370Z,62.56
2023-02-15T05:41:40.273Z,61.60
2023-02-15T05:44:08.100Z,62.99
2023-02-15T05:46:35.996Z,62.88
2023-02-15T05:49:04.185Z,63.42
2023-02-15T05:51:32.085Z,62.56
2023-02-15T05:53:59.960Z,62.77
2023-02-15T05:56:27.839Z,63.09
2023-02-15T05:58:56.071Z,62.65
2023-02-15T06:01:24.186Z,62.27
2023-02-15T06:03:53.297Z,61.68
2023-02-15T06:06:21.206Z,61.32
2023-02-15T06:08:49.386Z,61.41
2023-02-15T06:11:17.347Z,62.07
2023-02-15T06:13:45.230Z,62.91
2023-02-15T06:16:13.090Z,63.22
2023-02-15T06:18:40.986Z,64.43
2023-02-15T06:21:08.859Z,64.03
2023-02-15T06:23:36.728Z,63.36
2023-02-15T06:26:04.888Z,63.17
2023-02-15T06:28:32.835Z,63.94
2023-02-15T06:31:00.793Z,63.68
2023-02-15T06:33:28.808Z,62.10
2023-02-15T06:35:56.641Z,61.06
2023-02-15T06:38:24.463Z,62.02
2023-02-15T06:40:52.331Z,62.79
2023-02-15T06:43:20.181Z,62.91
2023-02-15T06:45:48.171Z,63.61
2023-02-15T06:48:16.211Z,64.05
2023-02-15T06:50:44.275Z,64.19
2023-02-15T06:53:12.182Z,63.94
2023-02-15T06:55:40.051Z,63.24
2023-02-15T06:58:07.935Z,63.76
2023-02-15T07:00:35.779Z,63.11
2023-02-15T07:03:04.098Z,61.67
2023-02-15T07:05:35.226Z,61.77
2023-02-15T07:08:03.400Z,61.67
2023-02-15T07:10:31.410Z,61.89
2023-02-15T07:12:59.355Z,62.36
2023-02-15T07:15:27.358Z,61.48
2023-02-15T07:17:55.222Z,61.79
2023-02-15T07:20:24.637Z,61.36
2023-02-15T07:22:53.056Z,62.07
2023-02-15T07:25:21.365Z,61.54
2023-02-15T07:27:49.213Z,61.94
2023-02-15T07:30:18.416Z,61.83
2023-02-15T07:33:05.859Z,60.79
2023-02-15T07:35:35.047Z,59.64
2023-02-15T07:38:02.942Z,59.39
2023-02-15T07:40:30.957Z,58.60
2023-02-15T07:43:00.351Z,58.68
2023-02-15T07:45:28.396Z,58.83
2023-02-15T07:47:56.484Z,57.89
2023-02-15T07:50:24.526Z,58.37
2023-02-15T07:52:52.455Z,57.59
2023-02-15T07:55:20.744Z,57.75
2023-02-15T07:57:51.175Z,56.92
2023-02-15T08:00:24.686Z,54.42
2023-02-15T08:03:13.695Z,50.34
2023-02-15T08:05:44.383Z,44.88
2023-02-15T08:08:31.823Z,41.11
2023-02-15T08:11:21.858Z,36.39
2023-02-15T08:13:57.693Z,34.65
2023-02-15T08:16:36.250Z,33.27
2023-02-15T08:19:08.351Z,33.77
2023-02-15T08:21:39.132Z,33.82
2023-02-15T08:24:09.753Z,32.33
2023-02-15T08:26:41.785Z,32.37
2023-02-15T08:29:11.435Z,33.74
2023-02-15T08:31:42.185Z,36.43
2023-02-15T08:34:12.770Z,37.74
2023-02-15T08:36:40.973Z,39.62
2023-02-15T08:39:09.218Z,41.51
2023-02-15T08:42:02.640Z,42.78
2023-02-15T08:44:30.802Z,43.35
2023-02-15T08:47:03.938Z,43.81
2023-02-15T08:49:32.679Z,43.96
2023-02-15T08:52:00.936Z,44.27
2023-02-15T08:54:28.915Z,43.92
2023-02-15T08:56:56.836Z,43.05
2023-02-15T08:59:26.672Z,43.05
2023-02-15T09:01:55.174Z,42.90
2023-02-15T09:04:23.776Z,42.74
2023-02-15T09:06:52.598Z,42.86
2023-02-15T09:09:21.221Z,43.23
2023-02-15T09:11:56.788Z,42.56
2023-02-15T09:14:27.874Z,42.08
2023-02-15T09:16:56.504Z,41.48
2023-02-15T09:19:25.178Z,41.63
2023-02-15T09:21:53.365Z,41.02
2023-02-15T09:24:21.382Z,40.52
2023-02-15T09:26:49.964Z,40.55
2023-02-15T09:29:19.227Z,39.60
2023-02-15T09:31:50.176Z,38.66
2023-02-15T09:34:21.124Z,38.29
2023-02-15T09:36:50.127Z,37.82
2023-02-15T09:39:21.091Z,35.34
2023-02-15T09:41:55.204Z,35.10
2023-02-15T09:44:42.166Z,34.97
2023-02-15T09:47:47.434Z,35.32
2023-02-15T09:50:35.093Z,34.31
2023-02-15T09:53:25.900Z,34.16
2023-02-15T09:56:15.396Z,33.40
2023-02-15T09:58:52.420Z,32.10
2023-02-15T10:01:44.285Z,32.83
2023-02-15T10:04:36.850Z,32.86
2023-02-15T10:07:29.434Z,32.32
2023-02-15T10:10:16.411Z,31.69
2023-02-15T10:13:12.500Z,31.94
2023-02-15T10:15:59.897Z,31.19
2023-02-15T10:18:33.742Z,30.69
2023-02-15T10:21:13.512Z,29.69
2023-02-15T10:23:56.471Z,29.32
2023-02-15T10:26:37.274Z,28.80
2023-02-15T10:29:29.560Z,28.23
2023-02-15T10:32:06.815Z,28.01
2023-02-15T10:34:43.570Z,27.70
2023-02-15T10:37:18.442Z,27.06
2023-02-15T10:40:07.877Z,26.66
2023-02-15T10:42:41.736Z,26.55
2023-02-15T10:45:25.269Z,26.25
2023-02-15T10:48:14.413Z,25.86
2023-02-15T10:50:48.202Z,25.52
2023-02-15T10:53:45.190Z,25.25
2023-02-15T10:56:29.977Z,23.58
2023-02-15T10:59:27.382Z,23.46
2023-02-15T11:02:02.361Z,22.43
2023-02-15T11:04:48.704Z,22.63
2023-02-15T11:07:28.060Z,21.20
2023-02-15T11:10:06.325Z,19.10
2023-02-15T11:12:34.819Z,18.60
2023-02-15T11:15:16.882Z,18.37
2023-02-15T11:17:52.273Z,18.23
2023-02-15T11:20:25.822Z,17.21
2023-02-15T11:22:54.960Z,16.73
2023-02-15T11:25:31.715Z,16.62
2023-02-15T11:28:01.108Z,16.45
2023-02-15T11:30:52.879Z,15.11
2023-02-15T11:33:30.416Z,15.32
2023-02-15T11:36:10.081Z,15.28
2023-02-15T11:38:44.466Z,14.95
2023-02-15T11:41:21.132Z,14.42
2023-02-15T11:44:02.237Z,12.98
2023-02-15T11:46:30.232Z,13.42
2023-02-15T11:48:59.578Z,13.33
2023-02-15T11:51:29.958Z,12.62
2023-02-15T11:53:58.048Z,13.20
2023-02-15T11:56:27.709Z,12.51
2023-02-15T11:58:59.097Z,13.69
2023-02-15T12:01:43.774Z,13.14
2023-02-15T12:04:25.941Z,13.02
2023-02-15T12:07:03.120Z,12.98
2023-02-15T12:09:39.930Z,11.72
2023-02-15T12:12:31.772Z,13.29
2023-02-15T12:15:05.602Z,12.12
2023-02-15T12:17:53.469Z,12.13
2023-02-15T12:20:21.375Z,12.15
2023-02-15T12:23:14.737Z,11.42
2023-02-15T12:25:55.565Z,11.88
2023-02-15T12:28:41.057Z,11.10
2023-02-15T12:31:42.464Z,11.37
2023-02-15T12:34:40.835Z,12.10
2023-02-15T12:37:20.179Z,11.91
2023-02-15T12:39:57.983Z,11.62
2023-02-15T12:42:27.792Z,11.71
2023-02-15T12:45:05.141Z,11.68
2023-02-15T12:47:33.676Z,11.18
2023-02-15T12:50:34.589Z,11.04
2023-02-15T12:53:24.860Z,10.60
2023-02-15T12:55:58.319Z,10.68
2023-02-15T12:58:28.278Z,10.21
2023-02-15T13:01:26.960Z,10.62
2023-02-15T13:04:05.600Z,9.64
2023-02-15T13:06:36.626Z,8.80
2023-02-15T13:09:13.463Z,8.56
2023-02-15T13:11:45.098Z,10.09
2023-02-15T13:14:33.876Z,10.56
2023-02-15T13:17:07.082Z,10.25
2023-02-15T13:19:51.815Z,10.42
2023-02-15T13:22:49.170Z,10.22
2023-02-15T13:25:26.513Z,9.81
2023-02-15T13:27:58.537Z,9.78
2023-02-15T13:30:33.773Z,9.32
2023-02-15T13:33:07.912Z,9.57
2023-02-15T13:35:51.505Z,9.61
2023-02-15T13:38:38.876Z,9.00
2023-02-15T13:41:14.623Z,8.74
2023-02-15T13:43:47.916Z,9.41
2023-02-15T13:46:30.854Z,8.88
2023-02-15T13:49:18.072Z,9.43
2023-02-15T13:52:05.668Z,9.91
2023-02-15T13:55:11.871Z,9.77
2023-02-15T13:58:13.574Z,9.69
2023-02-15T14:00:47.125Z,9.35
2023-02-15T14:03:52.723Z,9.37
2023-02-15T14:06:50.796Z,9.46
2023-02-15T14:09:29.436Z,9.38
2023-02-15T14:12:09.338Z,10.13
2023-02-15T14:15:03.255Z,9.64
2023-02-15T14:17:46.409Z,10.62
2023-02-15T14:20:45.425Z,10.52
2023-02-15T14:23:31.181Z,11.56
2023-02-15T14:26:15.366Z,10.57
2023-02-15T14:29:13.807Z,11.15
2023-02-15T14:31:50.713Z,11.50
2023-02-15T14:34:43.975Z,11.47
2023-02-15T14:37:15.413Z,11.88
2023-02-15T14:40:16.137Z,12.27
2023-02-15T14:42:49.334Z,12.34
2023-02-15T14:45:44.848Z,11.69
2023-02-15T14:48:31.179Z,12.93
2023-02-15T14:50:59.143Z,12.69
2023-02-15T14:53:33.132Z,12.40
2023-02-15T14:56:11.098Z,13.77
2023-02-15T14:58:39.469Z,14.48
2023-02-15T15:01:29.929Z,14.83
2023-02-15T15:04:23.152Z,14.30
2023-02-15T15:07:03.502Z,14.82
2023-02-15T15:09:35.172Z,14.66
2023-02-15T15:12:35.324Z,15.65
2023-02-15T15:15:05.260Z,15.91
2023-02-15T15:17:33.570Z,16.70
2023-02-15T15:20:02.734Z,17.14
2023-02-15T15:22:34.291Z,17.52
2023-02-15T15:25:11.905Z,18.30
2023-02-15T15:27:44.794Z,17.66
2023-02-15T15:30:15.372Z,18.47
2023-02-15T15:32:55.595Z,19.37
2023-02-15T15:35:45.140Z,20.43
2023-02-15T15:38:31.345Z,22.07
2023-02-15T15:41:25.516Z,22.93
2023-02-15T15:44:22.582Z,23.11
2023-02-15T15:47:07.442Z,24.34
2023-02-15T15:49:39.294Z,25.38
2023-02-15T15:52:16.779Z,25.70
2023-02-15T15:54:48.414Z,25.68
2023-02-15T15:57:46.958Z,26.50
2023-02-15T16:00:39.502Z,25.69
2023-02-15T16:03:14.946Z,25.77
2023-02-15T16:05:42.987Z,26.35
2023-02-15T16:08:10.867Z,26.19
2023-02-15T16:10:39.130Z,26.63
2023-02-15T16:13:08.330Z,26.95
2023-02-15T16:15:45.878Z,27.72
2023-02-15T16:18:18.335Z,27.71
2023-02-15T16:21:04.638Z,28.28
2023-02-15T16:23:41.023Z,28.38
2023-02-15T16:26:20.071Z,28.72
2023-02-15T16:28:52.856Z,29.23
2023-02-15T16:31:23.914Z,29.68
2023-02-15T16:33:56.685Z,29.93
2023-02-15T16:36:25.950Z,30.15
2023-02-15T16:38:53.745Z,30.24
2023-02-15T16:41:34.326Z,30.75
2023-02-15T16:44:08.725Z,30.48
2023-02-15T16:46:44.025Z,31.27
2023-02-15T16:49:20.785Z,31.53
2023-02-15T16:52:06.824Z,32.24
2023-02-15T16:54:36.442Z,32.75
2023-02-15T16:57:04.565Z,32.99
2023-02-15T16:59:44.522Z,33.08
2023-02-15T17:02:49.429Z,33.81
2023-02-15T17:05:16.903Z,33.72
2023-02-15T17:08:05.684Z,34.07
2023-02-15T17:10:38.226Z,33.49
2023-02-15T17:13:15.033Z,34.33
2023-02-15T17:16:02.206Z,34.92
2023-02-15T17:18:48.506Z,35.42
2023-02-15T17:21:22.409Z,35.49
2023-02-15T17:23:53.879Z,35.11
2023-02-15T17:26:29.860Z,35.77
2023-02-15T17:29:12.425Z,36.66
2023-02-15T17:31:41.924Z,36.31
2023-02-15T17:34:49.451Z,37.60
2023-02-15T17:37:37.838Z,38.61
2023-02-15T17:40:33.682Z,38.79
2023-02-15T17:43:01.901Z,38.35
2023-02-15T17:45:41.569Z,36.81
2023-02-15T17:48:31.951Z,38.02
2023-02-15T17:51:03.150Z,39.63
2023-02-15T17:53:31.518Z,40.21
2023-02-15T17:55:59.605Z,41.07
2023-02-15T17:58:27.577Z,41.13
2023-02-15T18:01:17.594Z,41.21
2023-02-15T18:04:10.359Z,41.64
2023-02-15T18:07:00.346Z,41.70
2023-02-15T18:09:47.193Z,42.16
2023-02-15T18:12:23.936Z,42.33
2023-02-15T18:14:54.438Z,42.27
2023-02-15T18:17:30.085Z,42.27
2023-02-15T18:19:58.053Z,42.25
2023-02-15T18:22:29.114Z,42.45
2023-02-15T18:24:57.035Z,42.78
2023-02-15T18:27:24.934Z,43.15
2023-02-15T18:29:52.809Z,42.95
2023-02-15T18:32:32.890Z,43.03
2023-02-15T18:35:03.813Z,42.90
2023-02-15T18:37:33.627Z,43.34
2023-02-15T18:40:04.410Z,42.88
2023-02-15T18:42:35.376Z,42.98
2023-02-15T18:45:16.556Z,43.77
2023-02-15T18:47:46.225Z,43.53
2023-02-15T18:50:16.473Z,43.62
2023-02-15T18:52:47.538Z,42.79
2023-02-15T18:55:18.494Z,43.61
2023-02-15T18:57:48.883Z,43.45
2023-02-15T19:00:28.528Z,43.67
2023-02-15T19:02:57.540Z,44.35
2023-02-15T19:05:30.217Z,43.82
2023-02-15T19:08:00.156Z,44.47
2023-02-15T19:10:30.621Z,44.43
2023-02-15T19:12:58.854Z,44.78
2023-02-15T19:15:30.659Z,44.97
2023-02-15T19:17:58.800Z,45.15
2023-02-15T19:20:39.937Z,44.92
2023-02-15T19:23:15.737Z,45.05
2023-02-15T19:25:43.685Z,45.28
2023-02-15T19:28:29.832Z,45.63
2023-02-15T19:30:57.986Z,45.81
2023-02-15T19:33:26.147Z,45.50
2023-02-15T19:35:58.178Z,45.73
2023-02-15T19:38:32.006Z,45.77
2023-02-15T19:41:08.240Z,45.66
2023-02-15T19:43:36.743Z,45.81
2023-02-15T19:46:05.962Z,46.24
2023-02-15T19:48:34.805Z,46.40
2023-02-15T19:51:04.800Z,46.91
2023-02-15T19:53:34.244Z,47.35
2023-02-15T19:56:04.247Z,47.00
2023-02-15T19:58:34.929Z,46.98
2023-02-15T20:01:04.282Z,47.01
2023-02-15T20:03:34.687Z,47.31
2023-02-15T20:06:04.382Z,47.47
2023-02-15T20:08:33.356Z,47.63
2023-02-15T20:11:02.381Z,47.51
2023-02-15T20:13:31.427Z,47.06
2023-02-15T20:16:02.583Z,47.51
2023-02-15T20:18:31.803Z,47.61
2023-02-15T20:21:02.859Z,47.15
2023-02-15T20:23:38.416Z,47.72
2023-02-15T20:26:19.514Z,48.17
2023-02-15T20:28:51.058Z,47.72
2023-02-15T20:31:21.773Z,47.50
2023-02-15T20:33:51.265Z,47.65
2023-02-15T20:36:22.434Z,47.90
2023-02-15T20:38:52.317Z,48.00
2023-02-15T20:41:37.002Z,48.26
2023-02-15T20:44:26.565Z,48.48
2023-02-15T20:46:57.301Z,48.48
2023-02-15T20:49:27.087Z,49.21
2023-02-15T20:51:56.352Z,48.94
2023-02-15T20:54:26.902Z,49.64
2023-02-15T20:56:54.650Z,49.73
2023-02-15T20:59:32.159Z,48.97
2023-02-15T21:02:21.141Z,49.77
2023-02-15T21:04:48.938Z,48.67
2023-02-15T21:07:18.955Z,49.61
2023-02-15T21:09:47.058Z,50.37
2023-02-15T21:12:17.289Z,49.71
2023-02-15T21:14:45.681Z,49.96
2023-02-15T21:17:16.252Z,50.69
2023-02-15T21:19:44.098Z,50.20
2023-02-15T21:22:14.563Z,49.94
2023-02-15T21:24:51.201Z,50.05
2023-02-15T21:27:19.166Z,50.08
2023-02-15T21:29:46.872Z,49.36
2023-02-15T21:32:14.707Z,49.53
2023-02-15T21:34:42.497Z,50.11
2023-02-15T21:37:30.530Z,50.88
2023-02-15T21:39:58.486Z,51.16
2023-02-15T21:42:46.802Z,50.16
2023-02-15T21:45:37.635Z,50.70
2023-02-15T21:48:05.513Z,51.53
2023-02-15T21:50:54.393Z,51.21
2023-02-15T21:53:33.569Z,51.48
2023-02-15T21:56:03.842Z,52.16
2023-02-15T21:58:35.836Z,51.57
2023-02-15T22:01:05.938Z,51.79
2023-02-15T22:03:36.443Z,51.50
2023-02-15T22:06:04.702Z,50.93
2023-02-15T22:08:33.224Z,51.78
2023-02-15T22:11:01.096Z,51.83
2023-02-15T22:13:32.357Z,51.02
2023-02-15T22:16:00.228Z,51.10
2023-02-15T22:18:33.973Z,51.99
2023-02-15T22:21:03.901Z,51.35
2023-02-15T22:23:32.392Z,52.14
2023-02-15T22:26:05.450Z,51.66
2023-02-15T22:28:51.749Z,52.10
2023-02-15T22:31:21.707Z,52.37
2023-02-15T22:33:52.528Z,51.64
2023-02-15T22:36:30.170Z,51.85
2023-02-15T22:38:58.505Z,51.76
2023-02-15T22:41:29.435Z,52.29
2023-02-15T22:43:57.909Z,52.33
2023-02-15T22:46:26.745Z,52.47
2023-02-15T22:48:54.630Z,52.15
2023-02-15T22:51:24.145Z,51.87
2023-02-15T22:53:52.504Z,52.03
2023-02-15T22:56:38.880Z,51.59
2023-02-15T22:59:16.202Z,52.30
2023-02-15T23:01:44.017Z,51.77
2023-02-15T23:04:20.938Z,51.63
2023-02-15T23:06:49.147Z,51.31
2023-02-15T23:09:17.049Z,50.98
2023-02-15T23:11:46.189Z,51.43
2023-02-15T23:14:35.246Z,51.57
2023-02-15T23:17:03.145Z,51.04
2023-02-15T23:19:30.834Z,51.79
2023-02-15T23:21:58.590Z,51.04
2023-02-15T23:24:31.601Z,50.27
2023-02-15T23:27:19.294Z,51.02
2023-02-15T23:29:47.117Z,50.79
2023-02-15T23:32:15.726Z,50.88
2023-02-15T23:34:43.581Z,50.32
2023-02-15T23:37:13.485Z,49.93
2023-02-15T23:39:59.804Z,49.91
2023-02-15T23:42:33.845Z,50.90
2023-02-15T23:45:02.434Z,51.45
2023-02-15T23:47:53.715Z,51.17
2023-02-15T23:50:29.496Z,50.74
2023-02-15T23:52:57.594Z,50.86
2023-02-15T23:55:37.551Z,50.94
2023-02-15T23:58:17.038Z,51.55
